Time,TemperatureF,DewpointF,PressureIn,WindDirection,WindDirectionDegrees,WindSpeedMPH,WindSpeedGustMPH,Humidity,HourlyPrecipIn,Conditions,Clouds,dailyrainin,SolarRadiationWatts/m^2,SoftwareType,DateUTC
2013-06-16 00:22:00,76.0,37.0,-100.00,WNW,288,9.0,18.0,24,0.00,,,0.00,793.000000,,2013-06-16 00:22:00,
2013-06-16 00:33:00,76.0,37.0,-100.00,WNW,288,9.0,18.0,24,0.00,,,0.00,793.000000,,2013-06-16 00:33:00,
2013-06-16 00:43:00,76.0,37.0,-100.00,WNW,288,9.0,18.0,24,0.00,,,0.00,793.000000,,2013-06-16 00:43:00,
2013-06-16 00:52:00,76.0,37.0,-100.00,WNW,288,9.0,18.0,24,0.00,,,0.00,793.000000,,2013-06-16 00:52:00,
2013-06-16 01:33:00,75.0,35.0,-100.00,West,268,12.0,21.0,23,0.00,,,0.00,605.000000,,2013-06-16 01:33:00,
2013-06-16 01:42:00,75.0,35.0,-100.00,West,268,12.0,21.0,23,0.00,,,0.00,605.000000,,2013-06-16 01:42:00,
2013-06-16 01:53:00,75.0,35.0,-100.00,West,268,12.0,21.0,23,0.00,,,0.00,605.000000,,2013-06-16 01:53:00,
2013-06-16 02:22:00,73.0,41.0,-100.00,West,277,11.0,20.0,32,0.00,,,0.00,420.000000,,2013-06-16 02:22:00,
2013-06-16 02:33:00,73.0,41.0,-100.00,West,277,11.0,20.0,32,0.00,,,0.00,420.000000,,2013-06-16 02:33:00,
2013-06-16 02:43:00,73.0,41.0,-100.00,West,277,11.0,20.0,32,0.00,,,0.00,420.000000,,2013-06-16 02:43:00,
2013-06-16 02:53:00,73.0,41.0,-100.00,West,277,11.0,20.0,32,0.00,,,0.00,420.000000,,2013-06-16 02:53:00,
2013-06-16 03:22:00,65.0,43.0,-100.00,West,271,8.0,17.0,45,0.00,,,0.00,126.000000,,2013-06-16 03:22:00,
2013-06-16 03:33:00,65.0,43.0,-100.00,West,271,8.0,17.0,45,0.00,,,0.00,126.000000,,2013-06-16 03:33:00,
2013-06-16 03:43:00,65.0,43.0,-100.00,West,271,8.0,17.0,45,0.00,,,0.00,126.000000,,2013-06-16 03:43:00,
2013-06-16 03:53:00,65.0,43.0,-100.00,West,271,8.0,17.0,45,0.00,,,0.00,126.000000,,2013-06-16 03:53:00,
2013-06-16 04:23:00,61.0,43.0,-100.00,NW,305,2.0,10.0,51,0.00,,,0.00,24.000000,,2013-06-16 04:23:00,
2013-06-16 04:33:00,61.0,43.0,-100.00,NW,305,2.0,10.0,51,0.00,,,0.00,24.000000,,2013-06-16 04:33:00,
2013-06-16 04:42:00,61.0,43.0,-100.00,NW,305,2.0,10.0,51,0.00,,,0.00,24.000000,,2013-06-16 04:42:00,
2013-06-16 04:53:00,61.0,43.0,-100.00,NW,305,2.0,10.0,51,0.00,,,0.00,24.000000,,2013-06-16 04:53:00,
2013-06-16 05:22:00,59.0,41.0,-100.00,East,81,2.0,6.0,52,0.00,,,0.00,1.000000,,2013-06-16 05:22:00,
2013-06-16 05:33:00,59.0,41.0,-100.00,East,81,2.0,6.0,52,0.00,,,0.00,1.000000,,2013-06-16 05:33:00,
2013-06-16 05:43:00,59.0,41.0,-100.00,East,81,2.0,6.0,52,0.00,,,0.00,1.000000,,2013-06-16 05:43:00,
2013-06-16 05:52:00,59.0,41.0,-100.00,East,81,2.0,6.0,52,0.00,,,0.00,1.000000,,2013-06-16 05:52:00,
2013-06-16 06:22:00,58.0,41.0,-100.00,NE,51,2.0,5.0,53,0.00,,,0.00,1.000000,,2013-06-16 06:22:00,
2013-06-16 06:33:00,58.0,41.0,-100.00,NE,51,2.0,5.0,53,0.00,,,0.00,1.000000,,2013-06-16 06:33:00,
2013-06-16 06:43:00,58.0,41.0,-100.00,NE,51,2.0,5.0,53,0.00,,,0.00,1.000000,,2013-06-16 06:43:00,
2013-06-16 06:52:00,58.0,41.0,-100.00,NE,51,2.0,5.0,53,0.00,,,0.00,1.000000,,2013-06-16 06:52:00,
2013-06-16 07:22:00,57.0,41.0,-100.00,NE,53,2.0,4.0,56,0.00,,,0.00,1.000000,,2013-06-16 07:22:00,
2013-06-16 07:32:00,57.0,41.0,-100.00,NE,53,2.0,4.0,56,0.00,,,0.00,1.000000,,2013-06-16 07:32:00,
2013-06-16 07:43:00,57.0,41.0,-100.00,NE,53,2.0,4.0,56,0.00,,,0.00,1.000000,,2013-06-16 07:43:00,
2013-06-16 07:53:00,57.0,41.0,-100.00,NE,53,2.0,4.0,56,0.00,,,0.00,1.000000,,2013-06-16 07:53:00,
2013-06-16 08:22:00,55.0,44.0,-100.00,NNE,12,3.0,7.0,67,0.00,,,-99.99,1.000000,,2013-06-16 08:22:00,
2013-06-16 08:33:00,55.0,44.0,-100.00,NNE,12,3.0,7.0,67,0.00,,,-99.99,1.000000,,2013-06-16 08:33:00,
2013-06-16 08:43:00,55.0,44.0,-100.00,NNE,12,3.0,7.0,67,0.00,,,-99.99,1.000000,,2013-06-16 08:43:00,
2013-06-16 08:54:00,55.0,44.0,-100.00,NNE,12,3.0,7.0,67,0.00,,,-99.99,1.000000,,2013-06-16 08:54:00,
2013-06-16 09:22:00,52.0,43.0,-100.00,SSE,148,1.0,4.0,72,0.00,,,0.00,1.000000,,2013-06-16 09:22:00,
2013-06-16 09:33:00,52.0,43.0,-100.00,SSE,148,1.0,4.0,72,0.00,,,0.00,1.000000,,2013-06-16 09:33:00,
2013-06-16 09:42:00,52.0,43.0,-100.00,SSE,148,1.0,4.0,72,0.00,,,0.00,1.000000,,2013-06-16 09:42:00,
2013-06-16 09:52:00,52.0,43.0,-100.00,SSE,148,1.0,4.0,72,0.00,,,0.00,1.000000,,2013-06-16 09:52:00,
2013-06-16 10:22:00,50.0,43.0,-100.00,East,92,3.0,4.0,78,0.00,,,0.00,1.000000,,2013-06-16 10:22:00,
2013-06-16 10:33:00,50.0,43.0,-100.00,East,92,3.0,4.0,78,0.00,,,0.00,1.000000,,2013-06-16 10:33:00,
2013-06-16 10:42:00,50.0,43.0,-100.00,East,92,3.0,4.0,78,0.00,,,0.00,1.000000,,2013-06-16 10:42:00,
2013-06-16 10:53:00,50.0,43.0,-100.00,East,92,3.0,4.0,78,0.00,,,0.00,1.000000,,2013-06-16 10:53:00,
2013-06-16 11:22:00,49.0,43.0,-100.00,ENE,63,3.0,4.0,81,0.00,,,0.00,1.000000,,2013-06-16 11:22:00,
2013-06-16 11:33:00,49.0,43.0,-100.00,ENE,63,3.0,4.0,81,0.00,,,0.00,1.000000,,2013-06-16 11:33:00,
2013-06-16 11:43:00,49.0,43.0,-100.00,ENE,63,3.0,4.0,81,0.00,,,0.00,1.000000,,2013-06-16 11:43:00,
2013-06-16 11:52:00,49.0,43.0,-100.00,ENE,63,3.0,4.0,81,0.00,,,0.00,1.000000,,2013-06-16 11:52:00,
2013-06-16 12:22:00,45.0,42.0,-100.00,ENE,77,2.0,5.0,90,0.00,,,0.00,1.000000,,2013-06-16 12:22:00,
2013-06-16 12:32:00,45.0,42.0,-100.00,ENE,77,2.0,5.0,90,0.00,,,0.00,1.000000,,2013-06-16 12:32:00,
2013-06-16 12:42:00,45.0,42.0,-100.00,ENE,77,2.0,5.0,90,0.00,,,0.00,1.000000,,2013-06-16 12:42:00,
2013-06-16 12:53:00,45.0,42.0,-100.00,ENE,77,2.0,5.0,90,0.00,,,0.00,1.000000,,2013-06-16 12:53:00,
2013-06-16 13:34:00,45.0,42.0,-100.00,ESE,102,2.0,3.0,90,0.00,,,0.00,6.000000,,2013-06-16 13:34:00,
2013-06-16 13:42:00,45.0,42.0,-100.00,ESE,102,2.0,3.0,90,0.00,,,0.00,6.000000,,2013-06-16 13:42:00,
2013-06-16 13:53:00,45.0,42.0,-100.00,ESE,102,2.0,3.0,90,0.00,,,0.00,6.000000,,2013-06-16 13:53:00,
2013-06-16 15:33:00,59.0,47.0,-100.00,ESE,112,2.0,4.0,65,-99.99,,,0.00,288.000000,,2013-06-16 15:33:00,
2013-06-16 15:52:00,59.0,47.0,-100.00,ESE,112,2.0,4.0,65,-99.99,,,0.00,288.000000,,2013-06-16 15:52:00,
2013-06-16 16:22:00,63.0,48.0,-100.00,SSW,202,3.0,5.0,58,0.00,,,0.00,485.000000,,2013-06-16 16:22:00,
2013-06-16 16:33:00,63.0,48.0,-100.00,SSW,202,3.0,5.0,58,0.00,,,0.00,485.000000,,2013-06-16 16:33:00,
2013-06-16 16:43:00,63.0,48.0,-100.00,SSW,202,3.0,5.0,58,0.00,,,0.00,485.000000,,2013-06-16 16:43:00,
2013-06-16 16:53:00,63.0,48.0,-100.00,SSW,202,3.0,5.0,58,0.00,,,0.00,485.000000,,2013-06-16 16:53:00,
2013-06-16 17:34:00,65.0,46.0,-100.00,WSW,249,8.0,11.0,50,0.00,,,0.00,642.000000,,2013-06-16 17:34:00,
2013-06-16 17:43:00,65.0,46.0,-100.00,WSW,249,8.0,11.0,50,0.00,,,0.00,642.000000,,2013-06-16 17:43:00,
2013-06-16 17:53:00,65.0,46.0,-100.00,WSW,249,8.0,11.0,50,0.00,,,0.00,642.000000,,2013-06-16 17:53:00,
2013-06-16 18:22:00,69.0,41.0,-100.00,South,180,6.0,13.0,36,0.00,,,0.00,820.000000,,2013-06-16 18:22:00,
2013-06-16 18:33:00,69.0,41.0,-100.00,South,180,6.0,13.0,36,0.00,,,0.00,820.000000,,2013-06-16 18:33:00,
2013-06-16 18:43:00,69.0,41.0,-100.00,South,180,6.0,13.0,36,0.00,,,0.00,820.000000,,2013-06-16 18:43:00,
2013-06-16 18:52:00,69.0,41.0,-100.00,South,180,6.0,13.0,36,0.00,,,0.00,820.000000,,2013-06-16 18:52:00,
2013-06-16 19:22:00,72.0,42.0,-100.00,SSW,205,7.0,14.0,34,0.00,,,0.00,946.000000,,2013-06-16 19:22:00,
2013-06-16 19:33:00,72.0,42.0,-100.00,SSW,205,7.0,14.0,34,0.00,,,0.00,946.000000,,2013-06-16 19:33:00,
2013-06-16 19:43:00,72.0,42.0,-100.00,SSW,205,7.0,14.0,34,0.00,,,0.00,946.000000,,2013-06-16 19:43:00,
2013-06-16 19:53:00,72.0,42.0,-100.00,SSW,205,7.0,14.0,34,0.00,,,0.00,946.000000,,2013-06-16 19:53:00,
2013-06-16 20:22:00,73.0,41.0,-100.00,West,262,4.0,17.0,31,0.00,,,0.00,1013.000000,,2013-06-16 20:22:00,
2013-06-16 20:33:00,73.0,41.0,-100.00,West,262,4.0,17.0,31,0.00,,,0.00,1013.000000,,2013-06-16 20:33:00,
2013-06-16 20:42:00,73.0,41.0,-100.00,West,262,4.0,17.0,31,0.00,,,0.00,1013.000000,,2013-06-16 20:42:00,
2013-06-16 20:53:00,73.0,41.0,-100.00,West,262,4.0,17.0,31,0.00,,,0.00,1013.000000,,2013-06-16 20:53:00,
2013-06-16 21:22:00,75.0,35.0,-100.00,SSW,193,9.0,17.0,23,0.00,,,0.00,1029.000000,,2013-06-16 21:22:00,
2013-06-16 21:32:00,75.0,35.0,-100.00,SSW,193,9.0,17.0,23,0.00,,,0.00,1029.000000,,2013-06-16 21:32:00,
2013-06-16 21:42:00,75.0,35.0,-100.00,SSW,193,9.0,17.0,23,0.00,,,0.00,1029.000000,,2013-06-16 21:42:00,
2013-06-16 21:52:00,75.0,35.0,-100.00,SSW,193,9.0,17.0,23,0.00,,,0.00,1029.000000,,2013-06-16 21:52:00,
2013-06-16 23:22:00,76.0,34.0,-100.00,WSW,240,10.0,17.0,22,-99.99,,,0.00,926.000000,,2013-06-16 23:22:00,
2013-06-16 23:32:00,76.0,34.0,-100.00,WSW,240,10.0,17.0,22,-99.99,,,0.00,926.000000,,2013-06-16 23:32:00,
2013-06-16 23:42:00,76.0,34.0,-100.00,WSW,240,10.0,17.0,22,-99.99,,,0.00,926.000000,,2013-06-16 23:42:00,
2013-06-16 23:51:00,76.0,34.0,-100.00,WSW,240,10.0,17.0,22,-99.99,,,0.00,926.000000,,2013-06-16 23:51:00,